createdAt,value
2017-11-09T00:13:17.737Z,58.80
2017-11-09T00:15:45.576Z,57.50
2017-11-09T00:18:13.403Z,57.50
2017-11-09T00:20:42.063Z,57.70
2017-11-09T00:23:09.823Z,57.70
2017-11-09T00:25:37.629Z,57.80
2017-11-09T00:28:05.497Z,57.80
2017-11-09T00:30:33.240Z,57.80
2017-11-09T00:33:01.763Z,58.00
2017-11-09T00:35:29.551Z,58.00
2017-11-09T00:37:57.301Z,58.00
2017-11-09T00:40:25.083Z,58.10
2017-11-09T00:42:53.062Z,58.00
2017-11-09T00:45:20.922Z,58.10
2017-11-09T00:47:48.718Z,58.10
2017-11-09T00:50:16.465Z,58.40
2017-11-09T00:52:44.215Z,58.40
2017-11-09T00:55:12.004Z,58.50
2017-11-09T00:57:39.836Z,58.50
2017-11-09T01:00:07.584Z,58.40
2017-11-09T01:02:35.394Z,58.40
2017-11-09T01:05:03.133Z,58.40
2017-11-09T01:07:30.913Z,58.40
2017-11-09T01:09:58.690Z,58.50
2017-11-09T01:12:26.601Z,58.40
2017-11-09T01:14:54.369Z,58.60
2017-11-09T01:17:22.156Z,58.40
2017-11-09T01:19:50.034Z,58.50
2017-11-09T01:22:17.885Z,58.60
2017-11-09T01:24:45.690Z,58.80
2017-11-09T01:27:13.518Z,59.00
2017-11-09T01:29:41.364Z,58.90
2017-11-09T01:32:09.197Z,58.90
2017-11-09T01:34:37.016Z,58.90
2017-11-09T01:37:05.598Z,58.90
2017-11-09T01:39:33.347Z,58.90
2017-11-09T01:42:01.178Z,57.00
2017-11-09T01:44:28.957Z,59.00
2017-11-09T01:46:56.765Z,58.80
2017-11-09T01:49:25.376Z,59.00
2017-11-09T01:51:53.205Z,58.90
2017-11-09T01:54:20.971Z,59.10
2017-11-09T01:56:48.788Z,59.20
2017-11-09T01:59:16.660Z,59.30
2017-11-09T02:01:44.429Z,59.10
2017-11-09T02:04:12.185Z,59.40
2017-11-09T02:06:39.982Z,59.50
2017-11-09T02:09:08.839Z,59.70
2017-11-09T02:11:36.664Z,59.50
2017-11-09T02:14:04.500Z,59.60
2017-11-09T02:16:32.277Z,59.50
2017-11-09T02:19:00.094Z,59.70
2017-11-09T02:21:27.942Z,59.70
2017-11-09T02:23:55.759Z,59.80
2017-11-09T02:26:23.585Z,59.30
2017-11-09T02:28:51.486Z,59.80
2017-11-09T02:31:19.300Z,59.80
2017-11-09T02:33:47.719Z,59.90
2017-11-09T02:36:15.738Z,60.00
2017-11-09T02:38:43.550Z,60.00
2017-11-09T02:41:12.098Z,60.20
2017-11-09T02:43:39.958Z,60.10
2017-11-09T02:46:07.812Z,60.20
2017-11-09T02:48:35.714Z,60.30
2017-11-09T02:51:03.596Z,60.30
2017-11-09T02:53:31.369Z,60.40
2017-11-09T02:56:00.118Z,60.40
2017-11-09T02:58:28.041Z,60.30
2017-11-09T03:00:55.929Z,60.40
2017-11-09T03:03:23.757Z,60.50
2017-11-09T03:05:51.593Z,60.60
2017-11-09T03:08:19.409Z,60.60
2017-11-09T03:10:47.333Z,60.60
2017-11-09T03:13:15.087Z,60.60
2017-11-09T03:15:42.917Z,60.80
2017-11-09T03:18:10.663Z,60.80
2017-11-09T03:20:38.411Z,60.70
2017-11-09T03:23:06.198Z,60.70
2017-11-09T03:25:33.980Z,61.00
2017-11-09T03:28:01.778Z,60.80
2017-11-09T03:30:29.533Z,61.00
2017-11-09T03:32:57.286Z,60.90
2017-11-09T03:35:25.048Z,61.00
2017-11-09T03:37:52.903Z,61.10
2017-11-09T03:40:20.745Z,61.00
2017-11-09T03:42:48.587Z,61.10
2017-11-09T03:45:16.433Z,61.30
2017-11-09T03:47:44.190Z,61.30
2017-11-09T03:50:12.021Z,61.00
2017-11-09T03:52:39.736Z,61.10
2017-11-09T03:55:07.625Z,61.20
2017-11-09T03:57:35.354Z,61.30
2017-11-09T04:00:03.086Z,61.40
2017-11-09T04:02:30.896Z,61.30
2017-11-09T04:04:58.655Z,61.60
2017-11-09T04:07:26.453Z,61.60
2017-11-09T04:09:54.278Z,61.60
2017-11-09T04:12:22.060Z,61.70
2017-11-09T04:14:50.605Z,62.00
2017-11-09T04:17:18.451Z,61.90
2017-11-09T04:19:46.197Z,62.00
2017-11-09T04:22:14.769Z,62.20
2017-11-09T04:24:42.584Z,62.10
2017-11-09T04:27:10.365Z,62.30
2017-11-09T04:29:38.173Z,62.50
2017-11-09T04:32:06.021Z,62.50
2017-11-09T04:34:33.890Z,62.50
2017-11-09T04:37:01.648Z,62.60
2017-11-09T04:39:29.524Z,62.70
2017-11-09T04:41:57.350Z,62.70
2017-11-09T04:44:25.151Z,62.60
2017-11-09T04:46:52.906Z,62.50
2017-11-09T04:49:20.647Z,62.40
2017-11-09T04:51:49.580Z,62.30
2017-11-09T04:54:20.610Z,62.10
2017-11-09T04:56:48.450Z,62.00
2017-11-09T04:59:16.202Z,61.50
2017-11-09T05:01:44.049Z,61.40
2017-11-09T05:04:11.881Z,61.00
2017-11-09T05:06:39.646Z,60.70
2017-11-09T05:09:07.449Z,60.10
2017-11-09T05:11:36.003Z,59.50
2017-11-09T05:14:03.783Z,59.50
2017-11-09T05:16:31.600Z,59.10
2017-11-09T05:18:59.417Z,58.90
2017-11-09T05:21:27.263Z,58.50
2017-11-09T05:23:55.027Z,58.20
2017-11-09T05:26:22.926Z,57.90
2017-11-09T05:28:50.728Z,57.70
2017-11-09T05:31:18.520Z,57.60
2017-11-09T05:33:47.497Z,57.50
2017-11-09T05:36:15.272Z,57.20
2017-11-09T05:38:43.019Z,57.00
2017-11-09T05:41:10.793Z,56.80
2017-11-09T05:43:38.557Z,56.80
2017-11-09T05:46:06.320Z,56.40
2017-11-09T05:48:34.169Z,56.30
2017-11-09T05:51:02.720Z,56.00
2017-11-09T05:53:30.844Z,55.90
2017-11-09T05:55:58.638Z,55.90
2017-11-09T05:58:26.527Z,55.80
2017-11-09T06:00:54.349Z,55.70
2017-11-09T06:03:22.187Z,55.60
2017-11-09T06:05:50.014Z,55.50
2017-11-09T06:08:18.204Z,55.70
2017-11-09T06:10:51.230Z,55.80
2017-11-09T06:13:19.284Z,55.60
2017-11-09T06:15:47.111Z,55.50
2017-11-09T06:18:15.044Z,55.20
2017-11-09T06:20:43.586Z,55.30
2017-11-09T06:39:25.634Z,57.20
2017-11-09T06:41:53.461Z,56.00
2017-11-09T06:44:21.213Z,56.00
2017-11-09T06:46:49.037Z,56.20
2017-11-09T06:49:16.804Z,56.20
2017-11-09T06:51:44.590Z,56.70
2017-11-09T06:54:12.466Z,56.30
2017-11-09T06:56:40.282Z,56.50
2017-11-09T06:59:08.147Z,56.80
2017-11-09T07:01:35.925Z,57.00
2017-11-09T07:04:03.706Z,57.20
2017-11-09T07:06:31.453Z,57.20
2017-11-09T07:08:59.290Z,57.30
2017-11-09T07:11:27.110Z,57.40
2017-11-09T07:13:54.890Z,56.80
2017-11-09T07:16:22.705Z,56.60
2017-11-09T07:18:50.540Z,56.60
2017-11-09T07:21:19.095Z,56.60
2017-11-09T07:23:46.991Z,56.50
2017-11-09T07:26:15.591Z,56.00
2017-11-09T07:28:43.508Z,55.90
2017-11-09T07:31:11.361Z,55.90
2017-11-09T07:33:39.213Z,55.90
2017-11-09T07:36:07.059Z,55.60
2017-11-09T07:38:35.577Z,55.00
2017-11-09T07:41:03.338Z,55.00
2017-11-09T07:43:31.143Z,55.60
2017-11-09T07:45:58.904Z,55.60
2017-11-09T07:48:26.785Z,55.30
2017-11-09T07:50:54.621Z,55.20
2017-11-09T07:53:22.443Z,54.90
2017-11-09T07:55:50.219Z,55.00
2017-11-09T07:58:18.060Z,54.80
2017-11-09T08:00:45.842Z,54.70
2017-11-09T08:03:13.600Z,54.40
2017-11-09T08:05:41.363Z,54.30
2017-11-09T08:08:09.178Z,54.20
2017-11-09T08:10:37.751Z,54.00
2017-11-09T08:13:05.498Z,54.00
2017-11-09T08:15:33.293Z,48.50
2017-11-09T08:18:01.191Z,53.90
2017-11-09T08:20:29.013Z,53.80
2017-11-09T08:22:57.565Z,54.10
2017-11-09T08:25:27.798Z,54.00
2017-11-09T08:27:56.798Z,54.10
2017-11-09T08:30:26.626Z,54.20
2017-11-09T08:32:55.554Z,54.20
2017-11-09T08:35:23.334Z,54.30
2017-11-09T08:37:51.118Z,54.20
2017-11-09T08:40:18.869Z,54.30
2017-11-09T08:42:46.769Z,54.20
2017-11-09T08:45:14.598Z,54.30
2017-11-09T08:47:42.365Z,54.50
2017-11-09T08:50:10.124Z,54.20
2017-11-09T08:52:37.992Z,54.30
2017-11-09T08:55:05.813Z,54.00
2017-11-09T08:57:33.635Z,54.10
2017-11-09T09:00:01.387Z,54.10
2017-11-09T09:02:29.193Z,53.90
2017-11-09T09:04:56.959Z,54.10
2017-11-09T09:07:24.792Z,54.30
2017-11-09T09:09:52.620Z,54.40
2017-11-09T09:12:20.434Z,54.00
2017-11-09T09:14:48.255Z,54.00
2017-11-09T09:17:16.088Z,53.70
2017-11-09T09:19:43.888Z,53.70
2017-11-09T09:35:59.517Z,54.60
2017-11-09T09:38:32.213Z,54.20
2017-11-09T09:41:00.151Z,54.00
2017-11-09T09:43:28.757Z,53.80
2017-11-09T09:45:56.557Z,53.70
2017-11-09T09:48:24.373Z,53.50
2017-11-09T09:50:52.944Z,53.40
2017-11-09T09:53:20.749Z,53.40
2017-11-09T09:55:48.537Z,53.40
2017-11-09T09:58:16.393Z,53.30
2017-11-09T10:00:44.209Z,47.30
2017-11-09T10:03:11.956Z,49.60
2017-11-09T10:05:39.716Z,51.90
2017-11-09T10:08:07.455Z,54.90
2017-11-09T10:10:35.288Z,55.50
2017-11-09T10:13:03.090Z,61.50
2017-11-09T10:15:30.908Z,53.70
2017-11-09T10:17:58.746Z,52.50
2017-11-09T10:20:26.571Z,53.50
2017-11-09T10:22:55.169Z,54.40
2017-11-09T10:25:23.077Z,54.20
2017-11-09T10:27:50.874Z,54.40
2017-11-09T10:30:18.674Z,55.50
2017-11-09T10:32:46.437Z,56.30
2017-11-09T10:35:14.227Z,56.90
2017-11-09T10:37:41.961Z,58.00
2017-11-09T10:40:09.746Z,56.50
2017-11-09T10:42:37.516Z,55.90
2017-11-09T10:45:05.335Z,56.20
2017-11-09T10:47:33.264Z,56.90
2017-11-09T10:50:01.067Z,56.70
2017-11-09T10:52:29.709Z,57.60
2017-11-09T10:54:57.536Z,57.50
2017-11-09T10:57:25.380Z,57.40
2017-11-09T10:59:53.221Z,56.30
2017-11-09T11:02:21.046Z,55.80
2017-11-09T11:04:48.859Z,56.70
2017-11-09T11:07:16.626Z,65.60
2017-11-09T11:09:44.477Z,63.70
2017-11-09T11:12:12.210Z,60.10
2017-11-09T11:14:40.042Z,50.40
2017-11-09T11:17:07.796Z,49.80
2017-11-09T11:19:35.606Z,57.50
2017-11-09T11:22:07.208Z,50.80
2017-11-09T11:24:35.056Z,48.80
2017-11-09T11:27:02.925Z,50.20
2017-11-09T11:29:30.856Z,55.90
2017-11-09T11:31:58.684Z,58.00
2017-11-09T11:34:26.476Z,52.20
2017-11-09T11:36:54.349Z,55.60
2017-11-09T11:39:22.141Z,55.30
2017-11-09T11:41:49.888Z,54.50
2017-11-09T11:44:17.686Z,55.00
2017-11-09T11:46:46.265Z,54.70
2017-11-09T11:49:14.074Z,54.60
2017-11-09T11:51:41.884Z,52.50
2017-11-09T11:54:09.739Z,50.10
2017-11-09T11:56:37.520Z,52.50
2017-11-09T11:59:05.433Z,51.10
2017-11-09T12:01:33.174Z,53.30
2017-11-09T12:04:01.002Z,50.40
2017-11-09T12:06:28.825Z,49.70
2017-11-09T12:08:57.338Z,53.40
2017-11-09T12:11:25.102Z,53.40
2017-11-09T12:13:52.957Z,53.70
2017-11-09T12:16:21.495Z,53.60
2017-11-09T12:18:49.321Z,53.60
2017-11-09T12:21:17.090Z,53.50
2017-11-09T12:23:44.917Z,52.90
2017-11-09T12:26:12.711Z,52.00
2017-11-09T12:28:40.512Z,53.40
2017-11-09T12:31:08.251Z,53.50
2017-11-09T12:33:36.025Z,54.00
2017-11-09T12:36:03.803Z,53.40
2017-11-09T12:38:31.620Z,53.50
2017-11-09T12:41:00.328Z,53.70
2017-11-09T12:43:28.966Z,53.90
2017-11-09T12:45:56.798Z,53.90
2017-11-09T12:48:24.559Z,54.00
2017-11-09T12:50:53.149Z,53.90
2017-11-09T12:53:21.211Z,53.90
2017-11-09T12:55:49.030Z,53.70
2017-11-09T12:58:16.897Z,53.70
2017-11-09T13:00:44.676Z,53.50
2017-11-09T13:03:12.490Z,53.20
2017-11-09T13:05:41.119Z,52.70
2017-11-09T13:08:08.886Z,52.70
2017-11-09T13:10:36.721Z,52.20
2017-11-09T13:13:04.579Z,52.40
2017-11-09T13:15:32.372Z,52.40
2017-11-09T13:18:02.122Z,52.30
2017-11-09T13:20:29.952Z,49.70
2017-11-09T13:22:57.810Z,52.30
2017-11-09T13:25:25.770Z,52.70
2017-11-09T13:27:53.523Z,51.10
2017-11-09T13:30:21.384Z,52.40
2017-11-09T13:32:49.984Z,47.50
2017-11-09T13:35:18.581Z,53.60
2017-11-09T13:37:46.512Z,53.60
2017-11-09T13:40:14.319Z,49.30
2017-11-09T13:42:42.234Z,55.50
2017-11-09T13:45:10.079Z,50.80
2017-11-09T13:47:37.915Z,52.50
2017-11-09T13:50:05.674Z,53.90
2017-11-09T13:52:33.492Z,56.20
2017-11-09T13:55:01.289Z,50.90
2017-11-09T13:57:29.068Z,55.00
2017-11-09T13:59:57.715Z,55.30
2017-11-09T14:02:25.500Z,55.30
2017-11-09T14:04:53.256Z,55.00
2017-11-09T14:07:21.065Z,54.40
2017-11-09T14:09:48.907Z,53.20
2017-11-09T14:12:16.657Z,52.00
2017-11-09T14:14:44.412Z,50.40
2017-11-09T14:17:12.255Z,53.70
2017-11-09T14:19:40.067Z,54.30
2017-11-09T14:22:07.947Z,54.30
2017-11-09T14:24:35.733Z,55.50
2017-11-09T14:27:03.589Z,53.00
2017-11-09T14:29:31.442Z,51.50
2017-11-09T14:31:59.232Z,54.10
2017-11-09T14:34:27.825Z,55.00
2017-11-09T14:36:55.590Z,54.90
2017-11-09T14:39:23.416Z,56.10
2017-11-09T14:41:51.257Z,54.50
2017-11-09T14:44:19.154Z,52.60
2017-11-09T14:46:47.040Z,54.20
2017-11-09T14:49:14.835Z,54.70
2017-11-09T14:51:43.489Z,55.20
2017-11-09T14:54:11.360Z,55.10
2017-11-09T14:56:39.163Z,55.10
2017-11-09T14:59:07.022Z,54.70
2017-11-09T15:01:34.839Z,54.10
2017-11-09T15:04:02.706Z,54.20
2017-11-09T15:06:30.568Z,54.30
2017-11-09T15:08:58.438Z,54.40
2017-11-09T15:11:26.392Z,54.30
2017-11-09T15:13:54.309Z,54.20
2017-11-09T15:16:22.178Z,54.70
2017-11-09T15:18:50.008Z,54.10
2017-11-09T15:21:17.758Z,53.90
2017-11-09T15:23:45.634Z,53.90
2017-11-09T15:26:13.481Z,54.10
2017-11-09T15:28:42.074Z,54.10
2017-11-09T15:31:09.942Z,54.00
2017-11-09T15:33:38.678Z,53.90
2017-11-09T15:36:09.285Z,53.90
2017-11-09T15:38:37.107Z,53.70
2017-11-09T15:41:04.945Z,53.70
2017-11-09T15:43:32.785Z,53.90
2017-11-09T15:46:00.731Z,53.70
2017-11-09T15:48:28.504Z,53.80
2017-11-09T15:50:56.378Z,53.70
2017-11-09T15:53:24.962Z,52.50
2017-11-09T15:55:53.541Z,54.00
2017-11-09T15:58:21.410Z,54.00
2017-11-09T16:00:49.344Z,54.20
2017-11-09T16:03:17.218Z,54.40
2017-11-09T16:05:45.036Z,54.40
2017-11-09T16:08:12.935Z,54.40
2017-11-09T16:10:40.822Z,54.30
2017-11-09T16:13:08.677Z,54.20
2017-11-09T16:15:36.638Z,54.00
2017-11-09T16:18:04.501Z,54.20
2017-11-09T16:20:32.369Z,54.50
2017-11-09T16:23:00.568Z,54.20
2017-11-09T16:25:28.417Z,54.10
2017-11-09T16:27:56.264Z,54.20
2017-11-09T16:30:24.804Z,54.00
2017-11-09T16:32:52.741Z,53.90
2017-11-09T16:35:21.542Z,53.90
2017-11-09T16:37:49.601Z,54.00
2017-11-09T16:40:17.591Z,54.10
2017-11-09T16:43:07.633Z,54.00
2017-11-09T16:45:38.490Z,54.00
2017-11-09T16:48:06.416Z,53.30
2017-11-09T16:50:34.312Z,53.10
2017-11-09T16:53:02.846Z,47.80
2017-11-09T16:55:30.710Z,47.70
2017-11-09T16:57:58.582Z,54.10
2017-11-09T17:00:26.688Z,53.90
2017-11-09T17:02:54.825Z,53.40
2017-11-09T17:05:26.593Z,51.90
2017-11-09T17:07:57.681Z,54.60
2017-11-09T17:10:25.659Z,48.70
2017-11-09T17:12:53.680Z,55.90
2017-11-09T17:15:21.522Z,56.50
2017-11-09T17:17:49.517Z,55.70
2017-11-09T17:20:17.388Z,55.50
2017-11-09T17:22:45.285Z,52.40
2017-11-09T17:25:13.236Z,48.60
2017-11-09T17:27:41.122Z,53.00
2017-11-09T17:30:09.006Z,56.00
2017-11-09T17:32:37.110Z,55.00
2017-11-09T17:35:04.991Z,54.70
2017-11-09T17:37:33.716Z,54.20
2017-11-09T17:40:01.656Z,54.10
2017-11-09T17:42:29.580Z,51.40
2017-11-09T17:44:58.647Z,57.10
2017-11-09T17:47:26.778Z,57.00
2017-11-09T17:49:54.854Z,55.60
2017-11-09T17:52:23.552Z,53.00
2017-11-09T17:54:51.444Z,52.90
2017-11-09T17:57:19.385Z,54.70
2017-11-09T17:59:53.021Z,48.60
2017-11-09T18:02:21.095Z,50.50
2017-11-09T18:04:50.684Z,57.30
2017-11-09T18:07:26.392Z,56.90
2017-11-09T18:09:54.301Z,55.80
2017-11-09T18:12:23.055Z,56.00
2017-11-09T18:14:52.892Z,55.80
2017-11-09T18:17:21.718Z,56.90
2017-11-09T18:19:49.550Z,56.90
2017-11-09T18:22:19.274Z,56.70
2017-11-09T18:24:50.677Z,52.30
2017-11-09T18:27:18.520Z,52.20
2017-11-09T18:29:46.661Z,49.40
2017-11-09T18:32:14.680Z,59.50
2017-11-09T18:34:42.829Z,58.80
2017-11-09T18:37:11.762Z,58.40
2017-11-09T18:39:40.115Z,58.30
2017-11-09T18:44:52.802Z,57.40
2017-11-09T18:47:20.957Z,57.40
2017-11-09T18:49:49.626Z,54.70
2017-11-09T18:52:18.436Z,54.60
2017-11-09T18:54:46.404Z,56.20
2017-11-09T18:57:14.196Z,57.00
2017-11-09T18:59:44.914Z,56.90
2017-11-09T19:02:12.811Z,57.90
2017-11-09T19:04:47.485Z,57.30
2017-11-09T19:07:15.457Z,57.30
2017-11-09T19:09:43.446Z,57.20
2017-11-09T19:12:11.410Z,57.10
2017-11-09T19:19:25.469Z,57.30
2017-11-09T19:26:01.663Z,52.80
2017-11-09T19:28:31.139Z,52.80
2017-11-09T19:33:40.727Z,58.60
2017-11-09T19:36:09.698Z,57.60
2017-11-09T19:38:37.842Z,57.60
2017-11-09T19:41:07.540Z,57.30
2017-11-09T19:43:36.448Z,57.40
2017-11-09T19:46:04.542Z,57.50
2017-11-09T19:48:34.668Z,57.10
2017-11-09T19:51:02.651Z,56.10
2017-11-09T19:53:32.723Z,56.80
2017-11-09T19:56:03.393Z,56.70
2017-11-09T19:58:35.020Z,56.90
2017-11-09T20:01:08.986Z,56.00
2017-11-09T20:03:40.382Z,56.00
2017-11-09T20:06:12.189Z,56.90
2017-11-09T20:09:14.207Z,56.80
2017-11-09T20:25:11.029Z,58.10
2017-11-09T20:27:54.129Z,56.80
2017-11-09T20:30:27.817Z,56.90
2017-11-09T20:33:01.751Z,49.20
2017-11-09T20:35:59.062Z,56.90
2017-11-09T20:38:54.257Z,56.90
2017-11-09T20:44:49.639Z,58.20
2017-11-09T20:47:20.492Z,54.80
2017-11-09T20:50:09.284Z,56.00
2017-11-09T20:53:01.030Z,57.10
2017-11-09T21:09:56.562Z,53.00
2017-11-09T21:12:24.798Z,57.30
2017-11-09T21:14:52.816Z,56.40
2017-11-09T21:17:20.793Z,58.40
2017-11-09T21:19:48.796Z,58.60
2017-11-09T21:22:17.621Z,58.30
2017-11-09T21:24:46.061Z,58.20
2017-11-09T21:27:14.568Z,58.30
2017-11-09T21:29:42.892Z,57.90
2017-11-09T21:32:10.856Z,57.50
2017-11-09T21:34:38.681Z,56.90
2017-11-09T21:37:07.449Z,57.10
2017-11-09T21:39:35.328Z,57.30
2017-11-09T21:45:35.571Z,51.30
2017-11-09T21:48:03.552Z,55.90
2017-11-09T21:50:31.556Z,64.40
2017-11-09T21:52:59.504Z,61.70
2017-11-09T21:55:27.410Z,59.80
2017-11-09T21:57:55.282Z,59.00
2017-11-09T22:00:23.419Z,58.60
2017-11-09T22:02:51.250Z,59.00
2017-11-09T22:05:19.315Z,58.20
2017-11-09T22:07:47.183Z,58.20
2017-11-09T22:10:15.226Z,57.80
2017-11-09T22:12:43.101Z,58.00
2017-11-09T22:15:10.944Z,57.80
2017-11-09T22:17:39.034Z,56.80
2017-11-09T22:20:06.800Z,56.60
2017-11-09T22:22:35.406Z,56.60
2017-11-09T22:25:03.282Z,56.60
2017-11-09T22:27:31.201Z,57.70
2017-11-09T22:29:59.183Z,56.20
2017-11-09T22:32:27.876Z,59.00
2017-11-09T22:34:55.918Z,59.00
2017-11-09T22:37:23.772Z,56.60
2017-11-09T22:39:51.629Z,57.20
2017-11-09T22:42:19.530Z,58.60
2017-11-09T22:44:47.428Z,57.50
2017-11-09T22:47:15.273Z,58.80
2017-11-09T22:49:43.298Z,58.50
2017-11-09T22:52:11.247Z,58.40
2017-11-09T22:54:39.826Z,58.10
2017-11-09T22:57:07.719Z,58.00
2017-11-09T22:59:35.557Z,55.90
2017-11-09T23:02:03.402Z,54.50
2017-11-09T23:04:31.320Z,57.00
2017-11-09T23:06:59.261Z,58.70
2017-11-09T23:09:27.052Z,58.70
2017-11-09T23:11:54.978Z,59.20
2017-11-09T23:14:22.887Z,59.30
2017-11-09T23:16:50.733Z,58.50
2017-11-09T23:19:18.648Z,57.10
2017-11-09T23:21:46.518Z,57.10
2017-11-09T23:24:14.364Z,55.70
2017-11-09T23:26:43.095Z,59.50
2017-11-09T23:29:10.957Z,59.40
2017-11-09T23:31:38.717Z,58.10
2017-11-09T23:34:06.675Z,58.60
2017-11-09T23:36:34.531Z,56.60
2017-11-09T23:39:02.413Z,59.70
2017-11-09T23:41:30.780Z,59.30
2017-11-09T23:43:58.687Z,55.00
2017-11-09T23:46:26.597Z,55.50
2017-11-09T23:48:54.402Z,57.20
2017-11-09T23:51:22.205Z,60.10
2017-11-09T23:53:50.057Z,54.80
2017-11-09T23:56:19.184Z,59.50
2017-11-09T23:58:48.284Z,60.70
